CheckWX is a tool to help pilots better visualize weather data.  It is not intended as a substitute for an official pre-flight weather briefing.

07:01:53 UTC

CYYL TAF
Lynn Lake Airport
Lynn Lake, Canada
TAF CYYL 170640Z 1707/1719 VRB03KT P6SM BKN080 BECMG 1708/1710 SKC BECMG 1715/1717 06008KT RMK FCST BASED ON AUTO OBS. NXT FCST BY 171300Z

Jun-17@
07:00 UTC

Jun-17 @ 07:00 UTC

Jun-17@
08:00 UTC

Jun-17 @ 08:00 UTC

TAF CYYL 170640Z 1707/1719 VRB03KT P6SM BKN080
Wind
  • Variable at 3 KTS
Cloud Levels
  • Broken at 8,000' AGL

Jun-17@
08:00 UTC

Jun-17 @ 08:00 UTC

Jun-17@
15:00 UTC

Jun-17 @ 15:00 UTC

BECMG 1708/1710 SKC

Becoming

Becoming Conditions expected by Mon, Jun 17, 2019 @ 10:00 UTC

Wind
  • Variable at 3 KTS
Cloud Levels
  • Clear skies

Jun-17@
15:00 UTC

Jun-17 @ 15:00 UTC

Jun-17@
19:00 UTC

Jun-17 @ 19:00 UTC

BECMG 1715/1717 06008KT RMK FCST BASED ON AUTO OBS. NXT FCST BY 171300Z

Becoming

Becoming Conditions expected by Mon, Jun 17, 2019 @ 17:00 UTC

Wind
  • 060° at 8 KTS
Cloud Levels
  • Clear skies